createdAt,value
2023-03-20T00:01:14.621Z,5.30
2023-03-20T00:03:41.276Z,5.10
2023-03-20T00:06:40.224Z,4.63
2023-03-20T00:09:08.206Z,5.22
2023-03-20T00:11:48.200Z,5.10
2023-03-20T00:14:16.458Z,5.10
2023-03-20T00:16:46.006Z,5.97
2023-03-20T00:19:27.468Z,5.25
2023-03-20T00:21:54.907Z,5.30
2023-03-20T00:24:21.920Z,5.00
2023-03-20T00:26:49.363Z,5.93
2023-03-20T00:29:24.052Z,4.85
2023-03-20T00:31:51.288Z,4.93
2023-03-20T00:34:19.562Z,4.93
2023-03-20T00:36:46.504Z,5.07
2023-03-20T00:39:13.046Z,4.90
2023-03-20T00:41:39.384Z,4.63
2023-03-20T00:44:18.888Z,4.53
2023-03-20T00:46:47.424Z,4.72
2023-03-20T00:49:14.058Z,4.85
2023-03-20T00:51:40.513Z,4.75
2023-03-20T00:54:15.444Z,5.05
2023-03-20T00:56:45.766Z,5.20
2023-03-20T00:59:19.245Z,5.13
2023-03-20T01:01:46.757Z,5.38
2023-03-20T01:04:14.753Z,5.10
2023-03-20T01:06:41.617Z,5.13
2023-03-20T01:09:08.457Z,5.13
2023-03-20T01:11:35.277Z,5.20
2023-03-20T01:14:02.183Z,5.00
2023-03-20T01:16:29.064Z,5.85
2023-03-20T01:18:55.872Z,4.85
2023-03-20T01:21:22.473Z,4.45
2023-03-20T01:23:49.514Z,4.47
2023-03-20T01:26:22.801Z,4.30
2023-03-20T01:28:50.643Z,4.82
2023-03-20T01:31:18.198Z,4.45
2023-03-20T01:33:45.718Z,4.55
2023-03-20T01:36:18.190Z,4.40
2023-03-20T01:38:44.813Z,4.40
2023-03-20T01:41:16.526Z,4.57
2023-03-20T01:43:44.959Z,4.75
2023-03-20T01:46:25.665Z,4.30
2023-03-20T01:49:08.608Z,4.50
2023-03-20T01:51:37.589Z,4.55
2023-03-20T01:54:16.339Z,4.13
2023-03-20T01:57:16.037Z,4.10
2023-03-20T01:59:56.287Z,3.78
2023-03-20T02:02:26.107Z,4.20
2023-03-20T02:04:56.772Z,3.90
2023-03-20T02:07:23.768Z,3.90
2023-03-20T02:10:03.808Z,4.22
2023-03-20T02:12:43.944Z,3.78
2023-03-20T02:15:15.316Z,3.90
2023-03-20T02:18:17.412Z,4.03
2023-03-20T02:21:09.576Z,4.38
2023-03-20T02:23:54.634Z,4.00
2023-03-20T02:26:44.829Z,4.30
2023-03-20T02:29:36.660Z,4.05
2023-03-20T02:32:29.249Z,3.75
2023-03-20T02:35:20.579Z,3.85
2023-03-20T02:37:49.622Z,3.80
2023-03-20T02:40:31.390Z,3.65
2023-03-20T02:43:03.820Z,3.92
2023-03-20T02:45:37.144Z,3.85
2023-03-20T02:48:27.709Z,4.13
2023-03-20T02:51:02.491Z,3.67
2023-03-20T02:53:39.067Z,3.90
2023-03-20T02:56:21.435Z,3.47
2023-03-20T02:59:00.472Z,3.70
2023-03-20T03:01:40.422Z,3.88
2023-03-20T03:04:14.344Z,3.90
2023-03-20T03:06:43.522Z,3.80
2023-03-20T03:09:28.501Z,4.00
2023-03-20T03:12:01.244Z,4.18
2023-03-20T03:14:34.636Z,3.88
2023-03-20T03:17:02.604Z,3.97
2023-03-20T03:19:29.444Z,4.18
2023-03-20T03:21:56.002Z,4.00
2023-03-20T03:24:41.220Z,3.85
2023-03-20T03:27:29.849Z,3.90
2023-03-20T03:29:58.858Z,4.35
2023-03-20T03:32:41.085Z,3.97
2023-03-20T03:35:13.366Z,4.00
2023-03-20T03:37:53.109Z,3.95
2023-03-20T03:40:35.668Z,3.70
2023-03-20T03:43:11.101Z,4.00
2023-03-20T03:45:44.531Z,3.70
2023-03-20T03:48:24.209Z,3.75
2023-03-20T03:51:02.613Z,3.20
2023-03-20T03:53:36.941Z,3.75
2023-03-20T03:56:06.975Z,3.50
2023-03-20T03:58:43.716Z,4.10
2023-03-20T04:01:14.071Z,3.65
2023-03-20T04:03:45.444Z,3.72
2023-03-20T04:06:15.812Z,4.03
2023-03-20T04:08:42.891Z,4.47
2023-03-20T04:11:15.936Z,5.47
2023-03-20T04:13:42.453Z,4.68
2023-03-20T04:16:14.267Z,4.60
2023-03-20T04:18:41.723Z,3.47
2023-03-20T04:21:10.613Z,3.97
2023-03-20T04:23:37.618Z,4.22
2023-03-20T04:26:06.054Z,4.00
2023-03-20T04:28:34.756Z,3.92
2023-03-20T04:31:18.094Z,3.63
2023-03-20T04:34:13.970Z,3.35
2023-03-20T04:39:35.776Z,3.38
2023-03-20T04:42:03.000Z,3.67
2023-03-20T04:44:29.585Z,3.95
2023-03-20T04:46:56.529Z,4.18
2023-03-20T04:49:23.280Z,5.25
2023-03-20T04:51:49.890Z,5.32
2023-03-20T04:54:26.163Z,5.65
2023-03-20T04:56:52.698Z,5.90
2023-03-20T04:59:20.491Z,6.05
2023-03-20T05:01:47.169Z,6.22
2023-03-20T05:04:13.866Z,6.60
2023-03-20T05:06:41.648Z,6.65
2023-03-20T05:09:08.093Z,6.75
2023-03-20T05:11:36.468Z,7.00
2023-03-20T05:14:06.796Z,7.63
2023-03-20T05:16:44.142Z,7.75
2023-03-20T05:19:45.815Z,8.32
2023-03-20T05:22:18.947Z,7.90
2023-03-20T05:25:24.028Z,7.95
2023-03-20T05:28:18.716Z,8.73
2023-03-20T05:30:51.283Z,8.82
2023-03-20T05:33:31.285Z,9.48
2023-03-20T05:36:13.590Z,8.65
2023-03-20T05:39:02.915Z,9.70
2023-03-20T05:41:46.209Z,8.48
2023-03-20T05:44:33.161Z,8.35
2023-03-20T05:47:26.272Z,9.70
2023-03-20T05:49:53.001Z,9.57
2023-03-20T05:52:25.793Z,9.07
2023-03-20T05:55:05.842Z,9.43
2023-03-20T05:57:47.970Z,9.80
2023-03-20T06:00:38.461Z,9.70
2023-03-20T06:03:23.961Z,9.52
2023-03-20T06:05:59.541Z,9.05
2023-03-20T06:08:26.295Z,9.77
2023-03-20T06:10:54.503Z,9.25
2023-03-20T06:13:20.957Z,9.70
2023-03-20T06:15:47.580Z,9.50
2023-03-20T06:18:17.254Z,9.77
2023-03-20T06:20:43.989Z,10.60
2023-03-20T06:23:10.473Z,11.60
2023-03-20T06:25:37.230Z,11.48
2023-03-20T06:28:04.210Z,11.60
2023-03-20T06:30:31.386Z,12.18
2023-03-20T06:32:58.379Z,11.73
2023-03-20T06:35:33.670Z,11.43
2023-03-20T06:38:00.606Z,11.68
2023-03-20T06:40:28.142Z,10.63
2023-03-20T06:42:57.116Z,11.32
2023-03-20T06:45:35.618Z,10.18
2023-03-20T06:48:09.179Z,9.65
2023-03-20T06:50:35.800Z,10.18
2023-03-20T06:53:03.029Z,9.90
2023-03-20T06:55:40.602Z,9.48
2023-03-20T06:58:07.116Z,10.27
2023-03-20T07:00:35.455Z,10.10
2023-03-20T07:03:04.947Z,9.05
2023-03-20T07:05:32.444Z,9.75
2023-03-20T07:07:59.842Z,10.52
2023-03-20T07:10:27.277Z,9.65
2023-03-20T07:12:54.904Z,9.38
2023-03-20T07:15:22.067Z,8.82
2023-03-20T07:17:49.550Z,9.55
2023-03-20T07:20:16.175Z,9.65
2023-03-20T07:22:42.922Z,9.18
2023-03-20T07:25:20.577Z,8.65
2023-03-20T07:27:52.727Z,10.70
2023-03-20T07:30:22.749Z,11.45
2023-03-20T07:32:50.670Z,10.82
2023-03-20T07:35:18.944Z,11.02
2023-03-20T07:37:45.868Z,11.25
2023-03-20T07:40:12.856Z,11.23
2023-03-20T07:42:52.212Z,10.93
2023-03-20T07:45:41.726Z,11.43
2023-03-20T07:48:08.350Z,12.05
2023-03-20T07:50:35.203Z,18.00
2023-03-20T07:53:01.956Z,11.98
2023-03-20T07:55:28.417Z,12.70
2023-03-20T07:57:54.922Z,13.02
2023-03-20T08:00:21.689Z,13.40
2023-03-20T08:02:48.392Z,13.95
2023-03-20T08:05:15.395Z,13.40
2023-03-20T08:07:42.255Z,14.35
2023-03-20T08:10:09.282Z,14.80
2023-03-20T08:12:36.145Z,14.55
2023-03-20T08:15:02.721Z,15.70
2023-03-20T08:17:29.254Z,16.00
2023-03-20T08:19:55.831Z,15.60
2023-03-20T08:22:22.342Z,18.60
2023-03-20T08:24:48.928Z,17.63
2023-03-20T08:27:15.384Z,19.27
2023-03-20T08:29:41.847Z,19.33
2023-03-20T08:32:08.373Z,17.40
2023-03-20T08:34:34.929Z,19.58
2023-03-20T08:37:04.811Z,17.75
2023-03-20T08:39:33.111Z,18.38
2023-03-20T08:42:00.960Z,17.00
2023-03-20T08:44:27.625Z,18.15
2023-03-20T08:46:55.023Z,17.70
2023-03-20T08:49:21.716Z,17.73
2023-03-20T08:51:48.298Z,17.08
2023-03-20T08:54:16.270Z,18.20
2023-03-20T08:56:42.723Z,17.67
2023-03-20T08:59:09.188Z,17.90
2023-03-20T09:01:48.672Z,17.25
2023-03-20T09:04:16.080Z,16.88
2023-03-20T09:06:42.636Z,17.73
2023-03-20T09:09:09.096Z,18.10
2023-03-20T09:11:36.670Z,17.63
2023-03-20T09:14:03.242Z,17.30
2023-03-20T09:16:29.830Z,18.58
2023-03-20T09:18:56.387Z,19.90
2023-03-20T09:21:23.321Z,18.52
2023-03-20T09:23:49.819Z,19.63
2023-03-20T09:26:16.873Z,19.35
2023-03-20T09:28:43.367Z,19.58
2023-03-20T09:31:10.245Z,19.10
2023-03-20T09:33:37.139Z,19.13
2023-03-20T09:36:04.102Z,19.90
2023-03-20T09:38:30.700Z,20.48
2023-03-20T09:40:59.735Z,21.23
2023-03-20T09:43:38.709Z,21.10
2023-03-20T09:46:14.216Z,22.63
2023-03-20T09:48:46.851Z,21.73
2023-03-20T09:51:28.404Z,22.42
2023-03-20T09:54:03.054Z,22.70
2023-03-20T09:56:30.312Z,22.92
2023-03-20T09:59:02.464Z,21.10
2023-03-20T10:01:48.929Z,21.27
2023-03-20T10:04:18.237Z,20.90
2023-03-20T10:06:44.895Z,19.92
2023-03-20T10:09:25.872Z,20.20
2023-03-20T10:12:20.789Z,19.80
2023-03-20T10:14:53.482Z,20.95
2023-03-20T10:17:52.898Z,19.63
2023-03-20T10:20:42.706Z,20.08
2023-03-20T10:23:34.175Z,18.80
2023-03-20T10:26:05.566Z,20.35
2023-03-20T10:28:36.798Z,19.15
2023-03-20T10:31:24.740Z,18.38
2023-03-20T10:34:01.625Z,17.48
2023-03-20T10:36:55.880Z,17.63
2023-03-20T10:39:39.812Z,16.58
2023-03-20T10:42:14.575Z,15.90
2023-03-20T10:44:43.568Z,16.38
2023-03-20T10:47:13.080Z,16.73
2023-03-20T10:49:58.254Z,17.67
2023-03-20T10:52:36.461Z,18.50
2023-03-20T10:55:16.969Z,18.52
2023-03-20T10:57:48.394Z,18.15
2023-03-20T11:00:34.034Z,19.80
2023-03-20T11:03:00.949Z,20.25
2023-03-20T11:05:32.411Z,20.73
2023-03-20T11:08:06.444Z,20.50
2023-03-20T11:10:36.700Z,21.67
2023-03-20T11:13:26.179Z,21.25
2023-03-20T11:15:54.345Z,21.67
2023-03-20T11:18:24.554Z,21.05
2023-03-20T11:20:54.020Z,22.55
2023-03-20T11:23:25.136Z,22.25
2023-03-20T11:26:03.446Z,22.65
2023-03-20T11:28:32.117Z,21.75
2023-03-20T11:31:17.290Z,21.48
2023-03-20T11:33:46.100Z,23.20
2023-03-20T11:36:27.811Z,21.48
2023-03-20T11:38:59.716Z,22.05
2023-03-20T11:41:28.175Z,23.23
2023-03-20T11:43:55.141Z,24.13
2023-03-20T11:46:23.353Z,23.38
2023-03-20T11:49:20.866Z,23.23
2023-03-20T11:51:47.405Z,23.30
2023-03-20T11:54:19.547Z,22.48
2023-03-20T11:56:57.496Z,21.55
2023-03-20T11:59:32.858Z,23.02
2023-03-20T12:02:00.277Z,22.70
2023-03-20T12:04:28.541Z,23.60
2023-03-20T12:07:21.892Z,23.00
2023-03-20T12:09:51.573Z,22.90
2023-03-20T12:12:38.553Z,23.02
2023-03-20T12:15:10.682Z,22.98
2023-03-20T12:17:55.025Z,22.60
2023-03-20T12:20:29.962Z,22.60
2023-03-20T12:23:01.668Z,21.52
2023-03-20T12:25:32.597Z,21.27
2023-03-20T12:28:06.346Z,22.52
2023-03-20T12:31:20.951Z,20.95
2023-03-20T12:34:06.368Z,22.33
2023-03-20T12:36:35.985Z,20.70
2023-03-20T12:39:11.354Z,20.10
2023-03-20T12:42:04.852Z,19.10
2023-03-20T12:44:49.340Z,20.55
2023-03-20T12:47:53.036Z,19.58
2023-03-20T12:50:33.597Z,18.98
2023-03-20T12:53:28.212Z,19.90
2023-03-20T12:56:06.745Z,19.35
2023-03-20T12:58:48.315Z,18.27
2023-03-20T13:01:22.895Z,18.92
2023-03-20T13:04:26.566Z,18.48
2023-03-20T13:07:07.681Z,18.77
2023-03-20T13:10:08.932Z,18.02
2023-03-20T13:12:47.468Z,16.42
2023-03-20T13:15:22.850Z,17.92
2023-03-20T13:17:55.286Z,16.63
2023-03-20T13:20:27.259Z,16.83
2023-03-20T13:23:05.619Z,15.52
2023-03-20T13:25:53.762Z,14.07
2023-03-20T13:28:38.104Z,14.15
2023-03-20T13:31:23.994Z,15.85
2023-03-20T13:34:16.861Z,15.48
2023-03-20T13:37:24.226Z,14.80
2023-03-20T13:40:04.661Z,14.40
2023-03-20T13:42:37.067Z,14.60
2023-03-20T13:45:34.875Z,13.35
2023-03-20T13:48:24.983Z,12.90
2023-03-20T13:51:06.243Z,13.10
2023-03-20T13:53:43.269Z,14.43
2023-03-20T13:56:33.373Z,13.80
2023-03-20T13:59:11.454Z,13.68
2023-03-20T14:01:50.853Z,13.55
2023-03-20T14:04:21.200Z,13.60
2023-03-20T14:06:51.420Z,13.20
2023-03-20T14:09:37.531Z,14.82
2023-03-20T14:12:09.912Z,12.48
2023-03-20T14:15:02.725Z,13.77
2023-03-20T14:17:32.385Z,12.85
2023-03-20T14:20:11.931Z,12.77
2023-03-20T14:22:40.896Z,12.32
2023-03-20T14:25:17.698Z,13.70
2023-03-20T14:27:56.730Z,13.85
2023-03-20T14:30:32.343Z,15.02
2023-03-20T14:33:15.328Z,16.48
2023-03-20T14:35:52.415Z,17.02
2023-03-20T14:38:25.987Z,17.10
2023-03-20T14:41:11.220Z,15.75
2023-03-20T14:44:06.269Z,16.75
2023-03-20T14:46:57.126Z,15.98
2023-03-20T14:49:32.039Z,16.48
2023-03-20T14:52:12.549Z,15.82
2023-03-20T14:54:41.464Z,16.25
2023-03-20T14:57:10.457Z,17.30
2023-03-20T14:59:37.215Z,16.05
2023-03-20T15:02:04.172Z,15.98
2023-03-20T15:04:42.085Z,16.52
2023-03-20T15:07:26.864Z,18.05
2023-03-20T15:09:59.467Z,17.75
2023-03-20T15:12:27.886Z,20.02
2023-03-20T15:15:08.234Z,20.08
2023-03-20T15:17:38.839Z,22.25
2023-03-20T15:20:23.282Z,21.10
2023-03-20T15:22:58.130Z,21.60
2023-03-20T15:25:45.824Z,22.92
2023-03-20T15:28:19.604Z,22.55
2023-03-20T15:30:48.449Z,22.58
2023-03-20T15:33:35.903Z,23.95
2023-03-20T15:36:10.160Z,23.95
2023-03-20T15:38:37.178Z,22.90
2023-03-20T15:41:08.162Z,24.20
2023-03-20T15:43:38.240Z,23.70
2023-03-20T15:46:17.851Z,22.83
2023-03-20T15:48:49.448Z,24.38
2023-03-20T15:51:16.005Z,23.77
2023-03-20T15:53:45.448Z,23.13
2023-03-20T15:56:18.636Z,23.30
2023-03-20T15:58:46.222Z,24.67
2023-03-20T16:01:21.237Z,23.48
2023-03-20T16:03:48.760Z,24.05
2023-03-20T16:06:18.596Z,24.85
2023-03-20T16:08:46.871Z,24.70
2023-03-20T16:11:15.875Z,24.63
2023-03-20T16:13:46.455Z,25.52
2023-03-20T16:16:18.167Z,25.42
2023-03-20T16:18:47.762Z,24.55
2023-03-20T16:21:26.992Z,25.45
2023-03-20T16:23:57.997Z,23.90
2023-03-20T16:26:27.158Z,26.67
2023-03-20T16:28:59.464Z,28.38
2023-03-20T16:31:29.113Z,23.83
2023-03-20T16:34:04.941Z,22.92
2023-03-20T16:36:34.258Z,23.95
2023-03-20T16:39:10.555Z,23.25
2023-03-20T16:41:39.520Z,23.63
2023-03-20T16:44:15.007Z,23.42
2023-03-20T16:47:01.635Z,22.52
2023-03-20T16:49:34.784Z,24.52
2023-03-20T16:52:11.668Z,26.37
2023-03-20T16:54:38.680Z,26.40
2023-03-20T16:57:09.470Z,25.08
2023-03-20T16:59:39.188Z,24.80
2023-03-20T17:02:22.072Z,23.98
2023-03-20T17:04:49.027Z,24.60
2023-03-20T17:07:20.568Z,24.52
2023-03-20T17:10:18.165Z,24.75
2023-03-20T17:12:46.706Z,23.65
2023-03-20T17:15:19.049Z,25.80
2023-03-20T17:17:45.603Z,25.15
2023-03-20T17:20:32.033Z,24.63
2023-03-20T17:22:58.649Z,25.45
2023-03-20T17:25:25.602Z,24.13
2023-03-20T17:27:52.318Z,23.88
2023-03-20T17:30:24.967Z,23.08
2023-03-20T17:32:51.776Z,24.08
2023-03-20T17:35:18.427Z,25.40
2023-03-20T17:37:45.375Z,25.10
2023-03-20T17:40:20.983Z,24.48
2023-03-20T17:42:48.667Z,23.40
2023-03-20T17:45:19.892Z,23.83
2023-03-20T17:47:47.319Z,23.63
2023-03-20T17:50:24.492Z,24.08
2023-03-20T17:52:51.155Z,24.45
2023-03-20T17:55:17.788Z,24.58
2023-03-20T17:57:44.826Z,24.45
2023-03-20T18:00:23.807Z,25.35
2023-03-20T18:02:52.178Z,24.88
2023-03-20T18:05:18.741Z,24.20
2023-03-20T18:07:45.327Z,24.80
2023-03-20T18:10:28.863Z,25.98
2023-03-20T18:12:55.399Z,24.23
2023-03-20T18:15:22.546Z,23.70
2023-03-20T18:17:49.219Z,24.88
2023-03-20T18:20:28.968Z,24.65
2023-03-20T18:22:55.777Z,22.85
2023-03-20T18:25:22.961Z,23.52
2023-03-20T18:27:49.879Z,23.05
2023-03-20T18:30:18.571Z,23.73
2023-03-20T18:32:45.648Z,24.60
2023-03-20T18:35:13.101Z,24.10
2023-03-20T18:37:40.807Z,24.35
2023-03-20T18:40:20.859Z,25.85
2023-03-20T18:42:47.473Z,23.95
2023-03-20T18:45:14.296Z,24.60
2023-03-20T18:47:40.981Z,23.73
2023-03-20T18:50:29.153Z,23.77
2023-03-20T18:52:57.255Z,24.15
2023-03-20T18:55:25.183Z,23.73
2023-03-20T18:57:52.474Z,23.80
2023-03-20T19:00:21.444Z,23.27
2023-03-20T19:02:49.029Z,22.30
2023-03-20T19:05:15.747Z,22.63
2023-03-20T19:07:42.306Z,22.45
2023-03-20T19:10:25.748Z,22.83
2023-03-20T19:12:53.057Z,23.15
2023-03-20T19:15:20.606Z,23.02
2023-03-20T19:17:47.363Z,22.73
2023-03-20T19:20:27.538Z,23.58
2023-03-20T19:22:54.036Z,22.58
2023-03-20T19:25:20.487Z,20.10
2023-03-20T19:27:47.013Z,22.42
2023-03-20T19:30:30.525Z,20.65
2023-03-20T19:32:57.490Z,19.67
2023-03-20T19:35:50.312Z,20.35
2023-03-20T19:38:19.467Z,19.60
2023-03-20T19:40:48.301Z,20.60
2023-03-20T19:43:16.021Z,19.27
2023-03-20T19:45:43.981Z,20.40
2023-03-20T19:48:16.209Z,19.27
2023-03-20T19:50:44.066Z,19.88
2023-03-20T19:53:13.033Z,18.60
2023-03-20T19:55:39.893Z,17.52
2023-03-20T19:58:07.133Z,18.25
2023-03-20T20:03:23.177Z,17.15
2023-03-20T20:05:52.567Z,17.08
2023-03-20T20:08:30.891Z,16.30
2023-03-20T20:11:06.349Z,17.42
2023-03-20T20:13:34.234Z,14.13
2023-03-20T20:16:01.070Z,14.60
2023-03-20T20:18:28.806Z,14.30
2023-03-20T20:22:02.420Z,13.40
2023-03-20T20:23:45.301Z,12.63
2023-03-20T20:26:11.821Z,11.90
2023-03-20T20:28:38.289Z,11.65
2023-03-20T20:31:04.919Z,12.23
2023-03-20T20:33:34.469Z,11.77
2023-03-20T20:36:59.081Z,11.27
2023-03-20T20:38:55.682Z,11.63
2023-03-20T20:41:22.366Z,11.40
2023-03-20T20:44:14.629Z,11.95
2023-03-20T20:46:35.535Z,11.57
2023-03-20T20:49:18.124Z,11.90
2023-03-20T20:51:46.180Z,12.13
2023-03-20T20:54:12.721Z,12.00
2023-03-20T20:56:39.239Z,12.55
2023-03-20T20:59:05.801Z,12.93
2023-03-20T21:01:32.359Z,12.93
2023-03-20T21:03:59.065Z,12.13
2023-03-20T21:06:50.526Z,13.02
2023-03-20T21:09:12.413Z,12.95
2023-03-20T21:11:39.037Z,12.80
2023-03-20T21:14:05.636Z,13.25
2023-03-20T21:16:32.154Z,13.02
2023-03-20T21:18:58.765Z,12.93
2023-03-20T21:21:25.368Z,13.02
2023-03-20T21:23:51.808Z,12.90
2023-03-20T21:26:18.634Z,12.90
2023-03-20T21:28:45.117Z,13.40
2023-03-20T21:31:26.527Z,13.25
2023-03-20T21:33:54.253Z,13.80
2023-03-20T21:36:21.369Z,14.98
2023-03-20T21:41:37.573Z,13.85
2023-03-20T21:44:05.487Z,14.38
2023-03-20T21:47:04.120Z,14.20
2023-03-20T22:03:33.834Z,15.10
2023-03-20T22:15:12.767Z,14.18
2023-03-20T22:26:11.282Z,7.60
2023-03-20T22:29:14.939Z,5.15
2023-03-20T22:34:46.451Z,3.97
2023-03-20T22:45:10.616Z,4.25
2023-03-20T22:47:37.849Z,3.60
2023-03-20T22:50:04.806Z,3.90
2023-03-20T22:52:47.603Z,3.75
2023-03-20T22:55:15.709Z,3.40
2023-03-20T22:57:50.174Z,3.97
2023-03-20T23:00:27.643Z,3.63
2023-03-20T23:02:57.384Z,3.40
2023-03-20T23:05:27.011Z,3.40
2023-03-20T23:07:53.497Z,3.83
2023-03-20T23:10:19.998Z,3.20
2023-03-20T23:12:46.473Z,3.60
2023-03-20T23:15:13.001Z,3.58
2023-03-20T23:17:39.437Z,3.67
2023-03-20T23:20:12.340Z,3.13
2023-03-20T23:22:39.791Z,3.53
2023-03-20T23:25:16.523Z,3.28
2023-03-20T23:27:47.439Z,3.22
2023-03-20T23:30:14.697Z,3.60
2023-03-20T23:32:42.553Z,3.63
2023-03-20T23:35:09.171Z,3.92
2023-03-20T23:37:36.071Z,3.80
2023-03-20T23:40:03.003Z,3.95
2023-03-20T23:42:30.925Z,3.60
2023-03-20T23:45:02.172Z,3.53
2023-03-20T23:47:44.773Z,3.83
2023-03-20T23:50:17.426Z,3.88
2023-03-20T23:53:01.112Z,4.07
2023-03-20T23:55:30.462Z,4.20
2023-03-20T23:57:56.981Z,4.70
